Time;durP1;ratioP1;P1;durP2;ratioP2;P2;SDS_P1;SDS_P2;PMS_P1;PMS_P2;Temp;Humidity;BMP_temperature;BMP_pressure;BME280_temperature;BME280_humidity;BME280_pressure;Samples;Min_cycle;Max_cycle;Signal;HPM_P1;HPM_P2
2022/04/06 00:00:40;;;;;;;5.80;4.70;;;;;;;10.39;67.35;98976.81;5014015;28;20733;-74
2022/04/06 00:03:06;;;;;;;5.40;4.90;;;;;;;10.43;67.64;98974.81;5012729;28;20484;-72
2022/04/06 00:05:31;;;;;;;5.57;4.68;;;;;;;10.41;67.68;98972.28;5010495;28;20903;-74
2022/04/06 00:07:57;;;;;;;4.63;4.17;;;;;;;10.40;67.70;98978.50;5014511;28;20206;-75
2022/04/06 00:10:22;;;;;;;5.40;4.20;;;;;;;10.40;67.77;98972.41;5013556;28;20206;-74
2022/04/06 00:12:48;;;;;;;7.70;4.60;;;;;;;10.40;67.69;98961.91;5013295;28;20656;-74
2022/04/06 00:15:13;;;;;;;5.23;4.73;;;;;;;10.39;67.74;98965.47;5014988;28;20226;-75
2022/04/06 00:17:40;;;;;;;4.40;3.83;;;;;;;10.38;67.76;98969.91;5012165;28;20391;-74
2022/04/06 00:20:06;;;;;;;5.43;4.80;;;;;;;10.37;67.83;98965.59;5011731;28;20218;-75
2022/04/06 00:22:32;;;;;;;7.30;4.53;;;;;;;10.37;67.86;98962.16;5012020;28;20293;-72
2022/04/06 00:24:58;;;;;;;7.10;3.80;;;;;;;10.37;67.74;98957.72;5010389;28;20249;-75
2022/04/06 00:27:24;;;;;;;5.18;3.95;;;;;;;10.37;67.81;98960.34;5010470;28;20221;-74
2022/04/06 00:29:50;;;;;;;5.73;5.03;;;;;;;10.38;67.99;98964.66;5022800;28;20209;-75
2022/04/06 00:32:16;;;;;;;6.70;5.00;;;;;;;10.40;68.03;98961.91;5012721;28;20931;-74
2022/04/06 00:37:25;;;;;;;5.72;5.13;;;;;;;10.39;68.00;98958.44;5014553;28;20215;-72
2022/04/06 00:39:51;;;;;;;4.90;4.40;;;;;;;10.41;67.95;98958.34;5011947;28;20384;-75
2022/04/06 00:42:18;;;;;;;9.50;5.20;;;;;;;10.40;67.91;98952.25;5012307;28;20280;-74
2022/04/06 00:44:44;;;;;;;4.82;4.32;;;;;;;10.41;68.16;98950.47;5014128;28;20392;-75
2022/04/06 00:47:09;;;;;;;5.57;4.33;;;;;;;10.43;67.95;98950.34;5014073;28;20234;-75
2022/04/06 00:49:35;;;;;;;4.30;3.90;;;;;;;10.41;68.18;98938.16;5012820;28;20460;-73
2022/04/06 00:52:04;;;;;;;5.27;4.27;;;;;;;10.42;68.18;98939.00;5015932;28;20206;-75
2022/04/06 00:54:30;;;;;;;4.30;3.85;;;;;;;10.43;68.26;98950.34;5016730;28;20674;-74
2022/04/06 00:56:56;;;;;;;5.25;4.13;;;;;;;10.43;68.24;98939.84;5017544;28;20214;-75
2022/04/06 00:59:22;;;;;;;4.20;3.80;;;;;;;10.43;68.34;98942.47;5019427;28;20206;-74
2022/04/06 01:01:50;;;;;;;4.53;3.90;;;;;;;10.44;68.55;98936.25;5016503;28;20202;-75
2022/04/06 01:04:17;;;;;;;7.25;3.95;;;;;;;10.44;68.32;98941.53;5018604;28;20540;-73
2022/04/06 01:06:43;;;;;;;5.88;4.65;;;;;;;10.44;68.43;98928.38;5018197;28;20210;-74
2022/04/06 01:09:09;;;;;;;5.32;4.75;;;;;;;10.43;68.40;98930.19;5026128;28;20210;-74
2022/04/06 01:11:34;;;;;;;5.80;4.40;;;;;;;10.44;68.31;98929.22;5016543;28;20232;-73
2022/04/06 01:14:02;;;;;;;5.07;4.20;;;;;;;10.44;68.59;98931.00;5017027;28;20238;-75
2022/04/06 01:16:28;;;;;;;4.78;4.30;;;;;;;10.44;68.58;98925.75;5018976;28;20214;-72
2022/04/06 01:18:53;;;;;;;4.97;4.47;;;;;;;10.44;68.50;98931.00;5017152;28;20209;-72
2022/04/06 01:21:20;;;;;;;4.67;4.10;;;;;;;10.44;68.66;98936.25;5018270;28;20217;-74
2022/04/06 01:23:46;;;;;;;5.63;4.97;;;;;;;10.42;68.82;98925.88;5016697;28;20205;-75
2022/04/06 01:26:12;;;;;;;4.10;3.40;;;;;;;10.43;68.94;98918.84;5018149;28;20258;-74
2022/04/06 01:28:39;;;;;;;5.00;4.53;;;;;;;10.43;68.85;98924.09;5018474;28;20491;-74
2022/04/06 01:31:05;;;;;;;6.63;5.88;;;;;;;10.45;69.11;98917.78;5019736;28;20481;-74
2022/04/06 01:33:31;;;;;;;5.90;4.90;;;;;;;10.43;69.34;98914.44;5017981;28;20218;-75
2022/04/06 01:35:57;;;;;;;6.17;5.27;;;;;;;10.41;69.45;98917.16;5018561;28;20485;-74
2022/04/06 01:38:24;;;;;;;7.60;4.53;;;;;;;10.40;69.41;98919.91;5016755;28;20801;-74
2022/04/06 01:40:50;;;;;;;8.55;5.72;;;;;;;10.39;69.28;98921.69;5018918;28;20300;-74
2022/04/06 01:43:16;;;;;;;6.70;3.85;;;;;;;10.37;69.46;98918.34;5019635;28;20271;-74
2022/04/06 01:45:41;;;;;;;4.70;4.30;;;;;;;10.37;69.28;98915.72;5020108;28;20235;-74
2022/04/06 01:48:07;;;;;;;5.13;3.93;;;;;;;10.36;69.54;98914.03;5024740;28;20313;-75
2022/04/06 01:53:17;;;;;;;7.13;4.93;;;;;;;10.36;69.40;98908.78;5017988;28;20229;-75
2022/04/06 01:55:42;;;;;;;6.10;4.80;;;;;;;10.35;69.67;98915.00;5018075;28;20239;-71
2022/04/06 01:58:08;;;;;;;4.97;4.40;;;;;;;10.34;69.54;98905.47;5016962;28;20219;-74
2022/04/06 02:00:33;;;;;;;6.20;5.07;;;;;;;10.35;69.79;98917.63;5015727;28;20399;-74
2022/04/06 02:03:00;;;;;;;5.95;5.10;;;;;;;10.38;70.26;98912.13;5022511;28;20753;-74
2022/04/06 02:05:31;;;;;;;5.57;3.88;;;;;;;10.36;70.07;98905.31;5017776;28;20229;-74
2022/04/06 02:07:57;;;;;;;7.00;5.47;;;;;;;10.35;70.32;98907.13;5017034;28;20215;-74
2022/04/06 02:10:22;;;;;;;4.53;4.13;;;;;;;10.34;70.24;98905.47;5014627;28;20210;-75
2022/04/06 02:12:48;;;;;;;4.53;4.13;;;;;;;10.33;70.37;98900.31;5017436;28;20210;-75
2022/04/06 02:15:14;;;;;;;5.33;4.40;;;;;;;10.32;70.41;98896.84;5018389;28;20245;-75
2022/04/06 02:17:40;;;;;;;7.23;4.70;;;;;;;10.31;70.34;98886.44;5017738;28;20445;-73
2022/04/06 02:20:06;;;;;;;5.07;4.13;;;;;;;10.30;70.29;98892.66;5018354;28;20742;-75
2022/04/06 02:22:31;;;;;;;5.60;4.50;;;;;;;10.30;70.43;98893.50;5012513;28;20749;-73
2022/04/06 02:24:56;;;;;;;5.80;4.93;;;;;;;10.29;70.54;98890.97;5017540;28;20898;-75
2022/04/06 02:27:22;;;;;;;6.57;4.97;;;;;;;10.29;70.67;98890.97;5018183;28;20202;-75
2022/04/06 02:29:48;;;;;;;7.13;4.83;;;;;;;10.29;70.65;98885.72;5017058;28;20322;-72
2022/04/06 02:32:13;;;;;;;7.30;5.40;;;;;;;10.29;70.62;98883.09;5018047;28;20282;-75
2022/04/06 02:34:39;;;;;;;7.30;4.70;;;;;;;10.29;70.87;98889.19;5016357;28;21012;-75
2022/04/06 02:37:06;;;;;;;5.10;4.33;;;;;;;10.28;70.91;98887.50;5016238;28;20198;-75
2022/04/06 02:39:31;;;;;;;5.47;4.97;;;;;;;10.28;70.99;98890.13;5017122;28;20532;-73
2022/04/06 02:41:57;;;;;;;6.43;5.17;;;;;;;10.27;71.17;98883.22;5016445;28;20825;-75
2022/04/06 02:44:22;;;;;;;5.47;4.33;;;;;;;10.27;71.25;98885.84;5015837;28;20225;-75
2022/04/06 02:46:48;;;;;;;8.27;7.10;;;;;;;10.26;71.28;98889.41;5017506;28;20709;-75
2022/04/06 02:49:15;;;;;;;7.03;5.50;;;;;;;10.28;71.40;98889.31;5014125;28;20217;-75
2022/04/06 02:51:41;;;;;;;5.55;4.95;;;;;;;10.26;71.63;98881.53;5018207;28;20365;-74
2022/04/06 02:54:06;;;;;;;4.37;3.97;;;;;;;10.27;71.63;98887.63;5016704;28;20256;-74
2022/04/06 02:56:32;;;;;;;7.00;4.63;;;;;;;10.27;71.41;98877.97;5019203;28;20698;-74
2022/04/06 02:58:58;;;;;;;6.50;5.00;;;;;;;10.26;71.87;98878.03;5017454;28;20618;-75
2022/04/06 03:01:23;;;;;;;5.30;4.07;;;;;;;10.26;71.82;98881.53;5018144;28;20214;-75
2022/04/06 03:03:48;;;;;;;4.93;4.33;;;;;;;10.25;72.06;98877.22;5016704;28;20721;-75
2022/04/06 03:06:14;;;;;;;6.50;5.17;;;;;;;10.24;71.97;98865.06;5018481;28;20337;-74
2022/04/06 03:08:39;;;;;;;6.00;5.20;;;;;;;10.24;72.10;98872.09;5016195;28;20210;-75
2022/04/06 03:11:05;;;;;;;6.00;4.83;;;;;;;10.23;72.17;98865.16;5019883;28;20202;-72
2022/04/06 03:13:31;;;;;;;5.33;4.83;;;;;;;10.22;72.13;98860.88;5014507;28;20564;-75
2022/04/06 03:15:56;;;;;;;5.60;5.03;;;;;;;10.21;72.51;98857.41;5015671;28;20234;-75
2022/04/06 03:18:22;;;;;;;5.20;4.10;;;;;;;10.19;72.61;98854.88;5015425;28;20673;-75
2022/04/06 03:20:48;;;;;;;8.43;6.30;;;;;;;10.19;72.68;98854.88;5014009;28;20265;-75
2022/04/06 03:23:15;;;;;;;6.40;5.50;;;;;;;10.19;72.77;98854.88;5016316;28;20206;-75
2022/04/06 03:25:41;;;;;;;6.55;5.13;;;;;;;10.17;72.84;98845.44;5013743;28;20806;-75
2022/04/06 03:28:07;;;;;;;4.63;4.22;;;;;;;10.16;72.78;98844.63;5014001;28;20626;-74
2022/04/06 03:30:32;;;;;;;5.97;5.40;;;;;;;10.16;73.06;98838.53;5012257;28;20208;-71
2022/04/06 03:32:58;;;;;;;6.47;5.60;;;;;;;10.14;73.27;98843.06;5013170;28;21614;-73
2022/04/06 03:35:23;;;;;;;6.70;5.77;;;;;;;10.13;73.27;98834.34;5012970;28;21188;-72
2022/04/06 03:37:50;;;;;;;6.20;5.53;;;;;;;10.13;73.44;98844.03;5013852;28;20224;-73
2022/04/06 03:40:16;;;;;;;7.50;5.95;;;;;;;10.12;73.67;98837.06;5012833;28;20203;-74
2022/04/06 03:42:42;;;;;;;6.70;5.60;;;;;;;10.10;73.77;98839.84;5017712;28;20233;-73
2022/04/06 03:45:08;;;;;;;10.27;6.33;;;;;;;10.10;73.95;98838.97;5012381;28;20950;-72
2022/04/06 03:47:35;;;;;;;7.82;5.13;;;;;;;10.08;73.80;98839.09;5012247;28;20301;-72
2022/04/06 03:50:03;;;;;;;7.53;6.70;;;;;;;10.06;73.87;98838.38;5013197;28;20214;-74
2022/04/06 03:52:28;;;;;;;6.60;6.00;;;;;;;10.06;74.05;98837.53;5007955;28;20490;-74
2022/04/06 03:54:54;;;;;;;7.00;5.20;;;;;;;10.04;74.21;98828.94;5012135;28;20218;-71
2022/04/06 03:57:20;;;;;;;5.40;4.93;;;;;;;10.04;74.39;98831.56;5012143;28;20626;-71
2022/04/06 03:59:45;;;;;;;8.30;5.80;;;;;;;10.03;74.37;98827.28;5010594;28;20487;-74
2022/04/06 04:02:11;;;;;;;8.83;6.00;;;;;;;10.03;74.60;98827.28;5011434;28;20202;-74
2022/04/06 04:04:37;;;;;;;6.90;5.47;;;;;;;10.01;74.76;98819.50;5003217;28;20789;-74
2022/04/06 04:07:02;;;;;;;6.80;6.10;;;;;;;10.00;74.86;98823.09;5004600;28;20470;-75
2022/04/06 04:09:29;;;;;;;6.03;5.30;;;;;;;9.98;74.86;98819.72;4936843;28;20328;-73
2022/04/06 04:11:56;;;;;;;8.18;4.93;;;;;;;9.95;74.82;98822.59;4937642;28;20247;-75
2022/04/06 04:14:22;;;;;;;7.25;6.22;;;;;;;9.92;75.02;98814.94;4937424;28;20312;-75
2022/04/06 04:16:48;;;;;;;4.88;3.95;;;;;;;9.90;75.33;98808.97;4937412;28;20239;-75
2022/04/06 04:19:13;;;;;;;6.60;4.80;;;;;;;9.88;75.29;98813.47;4937358;28;20576;-74
2022/04/06 04:21:39;;;;;;;5.30;3.87;;;;;;;9.86;75.31;98810.16;4937869;28;20217;-74
2022/04/06 04:24:08;;;;;;;5.33;4.30;;;;;;;9.86;75.43;98805.75;4937033;29;20540;-75
2022/04/06 04:26:34;;;;;;;7.18;4.75;;;;;;;9.86;75.64;98810.16;4937182;28;20256;-74
2022/04/06 04:29:00;;;;;;;4.80;4.40;;;;;;;9.85;75.52;98804.06;4937482;29;20219;-74
2022/04/06 04:31:26;;;;;;;7.00;5.00;;;;;;;9.86;75.58;98804.91;4936554;28;21302;-75
2022/04/06 04:33:51;;;;;;;6.43;4.22;;;;;;;9.85;75.71;98804.06;4936791;28;20407;-75
2022/04/06 04:36:17;;;;;;;5.83;5.20;;;;;;;9.87;75.56;98806.56;4937286;28;20236;-75
2022/04/06 04:38:43;;;;;;;5.00;4.37;;;;;;;9.86;75.58;98800.50;4936784;28;20220;-73
2022/04/06 04:41:09;;;;;;;6.30;4.50;;;;;;;9.85;75.47;98809.31;4937061;28;20213;-75
2022/04/06 04:43:36;;;;;;;5.20;3.92;;;;;;;9.86;75.84;98804.91;4936618;28;20224;-75
2022/04/06 04:46:02;;;;;;;4.20;3.40;;;;;;;9.86;75.64;98804.91;4937186;29;20702;-74
2022/04/06 04:48:28;;;;;;;6.18;4.28;;;;;;;9.85;75.90;98811.91;4937281;28;20240;-75
2022/04/06 04:50:53;;;;;;;6.27;4.07;;;;;;;9.84;76.04;98802.41;4936659;28;20461;-75
2022/04/06 04:53:18;;;;;;;5.63;4.10;;;;;;;9.84;75.80;98806.81;4936751;28;20215;-74
2022/04/06 04:55:44;;;;;;;4.90;4.33;;;;;;;9.84;76.13;98806.81;4937074;28;20544;-75
2022/04/06 04:58:09;;;;;;;5.10;4.20;;;;;;;9.83;76.04;98808.59;4936627;28;20208;-74
2022/04/06 05:00:35;;;;;;;4.90;4.30;;;;;;;9.85;76.34;98809.31;4935281;28;20476;-75
2022/04/06 05:03:02;;;;;;;5.97;4.03;;;;;;;9.84;76.46;98806.81;4936951;29;20614;-74
2022/04/06 05:05:29;;;;;;;4.90;3.97;;;;;;;9.84;76.47;98814.69;4936318;28;20615;-75
2022/04/06 05:07:57;;;;;;;5.20;3.92;;;;;;;9.82;76.25;98801.66;4936969;28;20225;-76
2022/04/06 05:10:23;;;;;;;4.55;3.80;;;;;;;9.81;76.41;98807.88;4936461;29;20216;-74
2022/04/06 05:12:48;;;;;;;4.73;3.23;;;;;;;9.81;76.51;98802.63;4936494;29;20284;-75
2022/04/06 05:15:14;;;;;;;5.60;3.70;;;;;;;9.80;76.45;98808.78;4936088;29;21039;-75
2022/04/06 05:17:40;;;;;;;5.83;3.50;;;;;;;9.81;76.50;98807.03;4936521;28;20212;-75
2022/04/06 05:20:07;;;;;;;5.27;4.30;;;;;;;9.80;76.63;98808.78;4936696;28;20953;-75
2022/04/06 05:22:32;;;;;;;6.40;4.70;;;;;;;9.82;76.75;98809.53;4935839;29;20590;-75
2022/04/06 05:25:00;;;;;;;7.13;5.27;;;;;;;9.83;77.05;98805.13;4935501;28;20307;-75
2022/04/06 05:27:25;;;;;;;6.63;3.90;;;;;;;9.84;76.99;98798.94;4936461;28;20617;-74
2022/04/06 05:29:51;;;;;;;6.60;4.47;;;;;;;9.85;76.71;98801.44;4935856;28;20674;-74
2022/04/06 05:32:16;;;;;;;4.83;4.17;;;;;;;9.86;76.68;98795.25;4936290;28;20304;-75
2022/04/06 05:34:41;;;;;;;7.07;4.47;;;;;;;9.88;76.65;98798.59;4935826;29;20280;-74
2022/04/06 05:37:07;;;;;;;6.07;4.13;;;;;;;9.88;76.58;98795.13;4936371;28;20208;-75
2022/04/06 05:39:32;;;;;;;5.00;3.67;;;;;;;9.91;76.38;98802.75;4939680;28;20228;-75
2022/04/06 05:41:58;;;;;;;9.27;8.30;;;;;;;9.93;76.55;98801.69;4939520;28;20594;-74
2022/04/06 05:44:23;;;;;;;6.90;5.53;;;;;;;9.98;76.37;98802.19;4939582;28;20262;-75
2022/04/06 05:46:48;;;;;;;4.70;4.30;;;;;;;10.01;76.17;98797.69;4940139;29;20236;-74
2022/04/06 05:49:14;;;;;;;6.23;5.10;;;;;;;10.06;76.16;98800.81;4939310;28;20602;-75
2022/04/06 05:51:40;;;;;;;5.97;4.70;;;;;;;10.08;75.95;98809.41;4939301;28;20212;-73
2022/04/06 05:54:05;;;;;;;7.00;4.93;;;;;;;10.10;76.01;98808.34;4939821;28;20717;-75
2022/04/06 05:56:32;;;;;;;7.40;4.53;;;;;;;10.13;75.68;98802.88;4939007;28;20256;-75
2022/04/06 05:58:57;;;;;;;5.30;4.63;;;;;;;10.16;75.74;98812.28;4939696;29;20563;-75
2022/04/06 06:01:23;;;;;;;5.17;4.67;;;;;;;10.15;75.68;98808.84;4939178;28;20211;-75
2022/04/06 06:03:49;;;;;;;6.10;4.73;;;;;;;10.18;75.75;98815.66;4939760;28;20626;-76
2022/04/06 06:06:14;;;;;;;5.00;4.30;;;;;;;10.19;75.35;98815.53;4938715;29;20233;-75
2022/04/06 06:08:40;;;;;;;5.93;5.33;;;;;;;10.21;75.51;98804.91;4939759;28;20216;-74
2022/04/06 06:11:05;;;;;;;5.27;4.80;;;;;;;10.22;75.52;98809.22;4939009;29;20344;-75
2022/04/06 06:13:32;;;;;;;5.23;4.73;;;;;;;10.24;75.46;98806.47;4938777;29;20498;-74
2022/04/06 06:15:57;;;;;;;5.15;4.65;;;;;;;10.25;75.51;98808.97;4938973;29;20291;-74
2022/04/06 06:18:24;;;;;;;7.27;5.20;;;;;;;10.28;75.23;98810.56;4939246;28;20213;-75
2022/04/06 06:20:50;;;;;;;9.13;5.45;;;;;;;10.28;75.24;98815.81;4939592;28;20227;-75
2022/04/06 06:23:15;;;;;;;7.73;4.87;;;;;;;10.30;75.17;98796.38;4940340;28;20208;-75
2022/04/06 06:25:41;;;;;;;5.50;3.90;;;;;;;10.33;75.22;98808.44;4939577;28;21047;-75
2022/04/06 06:28:06;;;;;;;5.33;4.00;;;;;;;10.33;75.25;98804.00;4939747;28;20291;-75
2022/04/06 06:30:32;;;;;;;4.60;4.20;;;;;;;10.37;75.10;98804.63;4939417;28;20213;-74
2022/04/06 06:32:57;;;;;;;8.33;5.30;;;;;;;10.44;75.19;98805.00;4937565;28;20483;-75
2022/04/06 06:35:26;;;;;;;4.87;4.23;;;;;;;10.46;75.34;98808.34;4939513;28;20225;-75
2022/04/06 06:37:54;;;;;;;4.95;3.90;;;;;;;10.48;75.04;98801.19;4939317;29;20220;-75
2022/04/06 06:40:21;;;;;;;4.72;3.80;;;;;;;10.50;75.06;98807.16;4938946;29;20216;-74
2022/04/06 06:42:47;;;;;;;6.93;3.72;;;;;;;10.53;74.98;98813.03;4939164;29;20488;-73
2022/04/06 06:45:12;;;;;;;6.57;3.90;;;;;;;10.57;74.67;98801.31;4939381;28;20345;-75
2022/04/06 06:47:40;;;;;;;6.30;3.87;;;;;;;10.59;74.52;98803.84;4937950;28;21262;-75
2022/04/06 06:50:07;;;;;;;5.30;3.70;;;;;;;10.64;74.41;98804.31;4938004;29;20255;-75
2022/04/06 06:52:34;;;;;;;5.95;4.45;;;;;;;10.72;74.29;98806.34;4938692;29;20217;-75
2022/04/06 06:55:05;;;;;;;4.40;3.67;;;;;;;10.77;74.03;98799.78;4938253;28;20247;-75
2022/04/06 06:57:31;;;;;;;5.57;4.05;;;;;;;10.79;74.00;98790.00;4938394;28;20223;-75
2022/04/06 06:59:56;;;;;;;4.60;3.95;;;;;;;10.81;73.97;98795.97;4938279;28;20213;-76
2022/04/06 07:02:22;;;;;;;5.60;3.13;;;;;;;10.79;74.07;98792.63;4938225;28;20215;-75
2022/04/06 07:04:47;;;;;;;3.83;3.10;;;;;;;10.78;73.96;98795.38;4938185;28;20349;-75
2022/04/06 07:07:13;;;;;;;4.03;3.43;;;;;;;10.78;74.00;98796.22;4938065;28;20209;-75
2022/04/06 07:09:38;;;;;;;4.53;3.47;;;;;;;10.79;74.01;98789.16;4938122;28;20737;-74
2022/04/06 07:12:04;;;;;;;2.40;2.03;;;;;;;10.80;73.82;98791.69;4938548;29;20706;-75
2022/04/06 07:14:30;;;;;;;3.03;2.63;;;;;;;10.80;73.81;98781.16;4937548;28;21038;-76
2022/04/06 07:16:56;;;;;;;5.22;3.00;;;;;;;10.82;73.72;98783.66;4937988;28;20208;-75
2022/04/06 07:19:21;;;;;;;3.33;2.30;;;;;;;10.89;73.69;98792.75;4937900;29;20310;-76
2022/04/06 07:21:46;;;;;;;5.73;2.50;;;;;;;10.98;73.46;98778.03;4938177;28;20259;-75
2022/04/06 07:24:12;;;;;;;3.50;2.73;;;;;;;11.06;73.12;98783.53;4937470;28;20248;-74
2022/04/06 07:26:37;;;;;;;3.23;2.33;;;;;;;11.17;72.74;98778.25;4938034;28;20245;-76
2022/04/06 07:29:03;;;;;;;2.47;2.27;;;;;;;11.32;72.27;98778.03;4938079;28;20551;-76
2022/04/06 07:31:28;;;;;;;2.90;2.40;;;;;;;11.55;71.70;98766.47;4937476;28;20513;-74
2022/04/06 07:33:54;;;;;;;3.63;2.67;;;;;;;11.77;70.68;98768.16;4938038;28;20216;-76
2022/04/06 07:36:19;;;;;;;2.50;1.90;;;;;;;11.98;70.16;98776.13;4937879;28;20229;-75
2022/04/06 07:38:45;;;;;;;2.67;1.83;;;;;;;12.15;69.53;98765.06;4937312;28;20292;-76
2022/04/06 07:41:10;;;;;;;2.30;1.97;;;;;;;12.39;68.93;98770.06;4937753;28;20216;-75
2022/04/06 07:43:36;;;;;;;2.50;2.30;;;;;;;12.62;67.99;98762.81;4937509;28;20209;-74
2022/04/06 07:46:02;;;;;;;2.70;2.50;;;;;;;12.91;67.02;98764.75;4937358;28;20239;-73
2022/04/06 07:48:27;;;;;;;2.27;2.07;;;;;;;13.18;66.13;98758.06;4937114;28;20217;-73
2022/04/06 07:50:57;;;;;;;3.20;2.00;;;;;;;13.49;65.19;98756.19;4938115;28;20212;-73
2022/04/06 07:53:22;;;;;;;2.00;1.90;;;;;;;13.81;63.96;98757.72;4937298;28;20736;-73
2022/04/06 07:55:49;;;;;;;2.57;1.60;;;;;;;13.97;63.06;98747.44;4936718;29;20233;-74
2022/04/06 07:58:15;;;;;;;2.20;1.90;;;;;;;14.04;62.42;98740.63;4937277;28;20209;-71
2022/04/06 08:00:41;;;;;;;2.63;1.92;;;;;;;14.13;62.22;98738.94;4935674;28;20201;-73
2022/04/06 08:03:07;;;;;;;3.63;2.60;;;;;;;14.28;61.55;98737.50;4936025;28;20799;-74
2022/04/06 08:05:33;;;;;;;3.05;2.15;;;;;;;14.30;61.10;98735.56;4937057;28;20236;-72
2022/04/06 08:07:58;;;;;;;3.17;2.20;;;;;;;14.56;60.57;98743.75;4951883;28;20663;-72
2022/04/06 08:10:24;;;;;;;2.43;2.20;;;;;;;15.11;58.75;98736.81;4937167;28;20228;-73
2022/04/06 08:12:50;;;;;;;2.65;1.90;;;;;;;15.42;57.85;98748.75;4937012;28;20209;-73
2022/04/06 08:15:15;;;;;;;3.10;1.30;;;;;;;16.16;55.86;98736.19;4936776;28;20651;-72
2022/04/06 08:17:44;;;;;;;1.93;1.60;;;;;;;16.77;54.03;98734.44;4936870;28;20209;-72
2022/04/06 08:20:13;;;;;;;1.67;1.47;;;;;;;17.18;52.54;98729.28;4937035;28;20216;-74
2022/04/06 08:22:40;;;;;;;3.10;1.43;;;;;;;17.77;50.99;98722.09;4935977;28;21573;-74
2022/04/06 08:25:06;;;;;;;2.17;1.98;;;;;;;17.97;50.03;98729.78;4936399;28;20491;-71
2022/04/06 08:27:32;;;;;;;2.03;1.70;;;;;;;17.75;50.55;98731.22;4935780;28;20578;-74
2022/04/06 08:29:58;;;;;;;2.37;1.70;;;;;;;17.37;51.03;98728.19;4936986;29;20374;-73
2022/04/06 08:32:23;;;;;;;1.97;1.63;;;;;;;16.94;52.12;98728.22;4936376;28;20906;-73
2022/04/06 08:34:49;;;;;;;3.20;2.13;;;;;;;16.62;52.98;98738.63;4936430;29;20242;-71
2022/04/06 08:37:14;;;;;;;2.10;1.70;;;;;;;16.46;53.56;98731.41;4936964;29;20511;-72
2022/04/06 08:39:43;;;;;;;2.47;2.10;;;;;;;16.09;54.05;98730.69;4936390;28;20919;-73
2022/04/06 08:42:10;;;;;;;2.38;2.15;;;;;;;15.65;55.08;98732.41;4936687;28;20211;-72
2022/04/06 08:44:36;;;;;;;2.08;1.80;;;;;;;15.19;56.74;98742.22;4936493;28;20229;-75
2022/04/06 08:47:06;;;;;;;2.15;1.95;;;;;;;14.83;57.71;98742.13;4936668;28;20247;-75
2022/04/06 08:49:34;;;;;;;2.47;2.00;;;;;;;14.48;58.59;98738.31;4936359;28;20285;-76
2022/04/06 08:52:00;;;;;;;1.70;1.60;;;;;;;14.23;59.57;98728.34;4936990;28;20213;-74
2022/04/06 08:54:26;;;;;;;1.75;1.65;;;;;;;14.07;60.13;98734.22;4936783;28;20324;-76
2022/04/06 08:56:52;;;;;;;2.70;1.93;;;;;;;14.07;60.23;98727.16;4937066;29;20559;-76
2022/04/06 08:59:17;;;;;;;8.50;8.00;;;;;;;14.14;59.86;98730.88;4950666;28;20193;-74
2022/04/06 09:01:43;;;;;;;2.70;2.30;;;;;;;14.19;59.78;98735.75;4936505;28;20219;-76
2022/04/06 09:04:08;;;;;;;3.10;1.80;;;;;;;14.19;59.62;98727.81;4936914;28;20215;-76
2022/04/06 09:06:44;;;;;;;2.43;1.90;;;;;;;14.42;59.35;98730.13;4936529;28;20224;-74
2022/04/06 09:09:10;;;;;;;3.05;1.83;;;;;;;14.46;59.01;98726.22;4936924;28;20216;-76
2022/04/06 09:11:43;;;;;;;2.35;1.58;;;;;;;14.28;59.49;98724.31;4936945;28;20205;-76
2022/04/06 09:14:09;;;;;;;1.35;1.23;;;;;;;14.31;59.36;98724.03;4940646;28;20217;-76
2022/04/06 09:16:35;;;;;;;1.83;1.73;;;;;;;14.70;58.40;98717.81;4940549;28;20299;-74
2022/04/06 09:19:11;;;;;;;1.53;1.43;;;;;;;15.26;56.84;98717.66;4940573;28;20883;-76
2022/04/06 09:21:44;;;;;;;3.10;1.55;;;;;;;15.25;56.63;98725.72;4940474;29;20548;-76
2022/04/06 09:24:14;;;;;;;2.03;1.60;;;;;;;15.00;57.33;98727.28;4940281;29;20275;-75
2022/04/06 09:26:39;;;;;;;1.45;1.35;;;;;;;14.71;57.85;98719.47;4939879;29;20245;-76
2022/04/06 09:29:06;;;;;;;1.60;1.23;;;;;;;14.43;58.40;98723.88;4940324;28;20215;-74
2022/04/06 09:31:38;;;;;;;2.00;1.35;;;;;;;14.25;58.91;98724.59;4939812;28;20940;-75
2022/04/06 09:34:04;;;;;;;2.15;1.35;;;;;;;14.15;59.28;98715.88;4940344;28;20906;-76
2022/04/06 09:36:31;;;;;;;1.33;1.20;;;;;;;14.17;59.46;98706.81;4940976;28;20229;-74
2022/04/06 09:38:57;;;;;;;2.15;1.95;;;;;;;14.25;59.46;98706.09;4940396;28;20638;-74
2022/04/06 09:41:24;;;;;;;5.97;5.20;;;;;;;14.29;59.25;98707.50;4939929;28;20213;-75
2022/04/06 09:43:51;;;;;;;2.88;2.60;;;;;;;14.36;59.06;98702.47;4939920;28;20212;-76
2022/04/06 09:49:10;;;;;;;2.15;1.60;;;;;;;14.60;58.84;98702.00;4938738;29;20257;-74
2022/04/06 09:51:40;;;;;;;1.58;1.30;;;;;;;14.62;58.56;98702.69;4939558;28;20410;-76
2022/04/06 09:54:07;;;;;;;1.60;1.20;;;;;;;14.58;58.17;98703.94;4938789;28;20791;-75
2022/04/06 09:56:35;;;;;;;1.83;1.40;;;;;;;14.45;58.60;98698.16;4939201;28;20260;-75
2022/04/06 09:59:03;;;;;;;2.38;1.48;;;;;;;14.54;58.54;98686.72;4940000;28;20235;-74
2022/04/06 10:01:33;;;;;;;1.10;0.95;;;;;;;14.58;58.23;98690.72;4939716;28;20208;-76
2022/04/06 10:04:05;;;;;;;1.42;1.25;;;;;;;14.58;58.12;98686.31;4938575;28;20216;-76
2022/04/06 10:06:38;;;;;;;1.45;1.10;;;;;;;14.60;58.37;98675.56;4939129;28;20214;-76
2022/04/06 10:09:06;;;;;;;1.50;1.40;;;;;;;14.60;58.38;98681.69;4939190;29;20243;-74
2022/04/06 10:11:39;;;;;;;1.55;1.25;;;;;;;14.67;58.67;98684.59;4939422;29;20217;-75
2022/04/06 10:14:08;;;;;;;1.58;1.15;;;;;;;14.88;58.21;98675.56;4937712;28;20220;-76
2022/04/06 10:16:36;;;;;;;1.70;1.38;;;;;;;15.19;57.24;98666.31;4939465;28;20295;-73
2022/04/06 10:19:02;;;;;;;2.15;1.25;;;;;;;15.54;56.53;98666.47;4940016;29;20324;-74
2022/04/06 10:21:41;;;;;;;1.80;1.27;;;;;;;15.66;55.60;98657.31;4939241;28;20208;-76
2022/04/06 10:24:22;;;;;;;1.70;1.60;;;;;;;15.58;55.59;98666.03;4954211;28;20213;-76
2022/04/06 10:27:07;;;;;;;1.77;1.08;;;;;;;15.52;55.54;98661.31;5001025;28;20320;-73
2022/04/06 10:30:09;;;;;;;1.20;1.10;;;;;;;15.54;55.82;98656.72;5000674;28;20294;-76
2022/04/06 10:32:57;;;;;;;1.27;1.17;;;;;;;15.56;55.82;98643.34;5000814;28;20261;-76
2022/04/06 10:35:31;;;;;;;1.30;1.20;;;;;;;15.51;56.15;98645.63;4998440;28;20236;-75
2022/04/06 10:37:58;;;;;;;1.58;1.25;;;;;;;15.59;55.95;98648.34;5000898;28;20214;-73
2022/04/06 10:40:24;;;;;;;1.30;1.20;;;;;;;15.72;55.71;98632.09;5000276;28;20212;-72
2022/04/06 10:42:50;;;;;;;2.78;1.48;;;;;;;15.84;55.44;98630.84;5001158;28;20835;-75
2022/04/06 10:45:24;;;;;;;1.23;1.13;;;;;;;15.84;54.87;98626.38;4999641;28;20747;-74
2022/04/06 10:48:14;;;;;;;1.52;1.40;;;;;;;15.78;54.81;98621.69;5000065;28;20269;-76
2022/04/06 10:50:44;;;;;;;1.10;1.00;;;;;;;15.75;54.89;98626.47;4999530;28;20302;-74
2022/04/06 10:53:26;;;;;;;1.45;1.35;;;;;;;15.79;54.72;98617.22;5002324;28;20209;-75
2022/04/06 10:56:02;;;;;;;1.70;1.30;;;;;;;15.87;54.65;98609.34;5003190;28;20241;-72
2022/04/06 10:58:28;;;;;;;1.40;1.30;;;;;;;16.04;54.18;98610.25;5000976;28;20556;-75
2022/04/06 11:01:13;;;;;;;1.40;1.30;;;;;;;16.14;53.96;98609.16;4999201;28;20223;-73
2022/04/06 11:03:43;;;;;;;1.30;1.20;;;;;;;16.12;54.25;98603.22;5014092;28;20963;-74
2022/04/06 11:06:09;;;;;;;2.97;1.73;;;;;;;16.04;54.36;98592.56;5015229;28;20474;-74
2022/04/06 11:11:38;;;;;;;2.35;1.13;;;;;;;15.50;54.59;98589.22;5013827;28;20406;-74
2022/04/06 11:14:04;;;;;;;1.63;1.30;;;;;;;15.42;54.80;98589.97;5013977;28;20239;-75
2022/04/06 11:16:46;;;;;;;1.63;1.30;;;;;;;15.53;54.92;98585.41;5014676;28;20232;-73
2022/04/06 11:19:13;;;;;;;1.50;1.40;;;;;;;15.72;54.33;98581.78;5011296;28;20448;-70
2022/04/06 11:21:50;;;;;;;2.30;1.35;;;;;;;15.93;54.19;98584.88;5007814;28;20213;-71
2022/04/06 11:24:17;;;;;;;1.20;1.10;;;;;;;16.05;54.17;98577.50;5008406;28;20272;-71
2022/04/06 11:26:43;;;;;;;1.73;1.60;;;;;;;16.08;53.79;98570.06;5010062;28;20255;-72
2022/04/06 11:29:08;;;;;;;1.63;1.53;;;;;;;16.10;54.07;98573.38;5010157;28;20215;-72
2022/04/06 11:31:33;;;;;;;1.97;1.30;;;;;;;16.07;54.16;98567.59;5008398;28;20235;-72
2022/04/06 11:33:59;;;;;;;2.80;1.40;;;;;;;16.03;54.44;98566.22;5009752;28;20207;-70
2022/04/06 11:36:24;;;;;;;1.37;1.27;;;;;;;16.02;53.95;98552.16;5007236;28;20239;-71
2022/04/06 11:38:51;;;;;;;1.60;1.50;;;;;;;15.95;53.92;98548.47;5005444;28;20211;-72
2022/04/06 11:41:18;;;;;;;1.40;1.10;;;;;;;15.98;53.94;98548.16;5005589;28;21123;-71
2022/04/06 11:43:44;;;;;;;2.22;1.35;;;;;;;16.05;53.68;98551.00;5007886;28;20905;-72